createdAt,value
2023-03-15T00:00:48.500Z,14.40
2023-03-15T00:03:15.384Z,14.40
2023-03-15T00:05:46.080Z,14.50
2023-03-15T00:08:13.057Z,14.50
2023-03-15T00:10:43.124Z,14.60
2023-03-15T00:13:10.208Z,14.60
2023-03-15T00:15:37.172Z,14.70
2023-03-15T00:18:03.994Z,14.70
2023-03-15T00:20:31.115Z,14.70
2023-03-15T00:22:57.918Z,14.70
2023-03-15T00:25:24.711Z,14.70
2023-03-15T00:27:51.592Z,14.70
2023-03-15T00:30:18.433Z,14.70
2023-03-15T00:32:45.243Z,14.70
2023-03-15T00:35:13.164Z,14.70
2023-03-15T00:37:39.953Z,14.60
2023-03-15T00:40:07.749Z,14.60
2023-03-15T00:42:34.561Z,14.50
2023-03-15T00:45:01.364Z,14.40
2023-03-15T00:47:28.131Z,14.40
2023-03-15T00:49:55.030Z,14.40
2023-03-15T00:52:22.178Z,14.40
2023-03-15T00:54:55.233Z,14.30
2023-03-15T00:57:22.441Z,14.30
2023-03-15T00:59:49.256Z,14.20
2023-03-15T01:02:16.058Z,14.20
2023-03-15T01:04:42.822Z,14.20
2023-03-15T01:07:09.692Z,14.30
2023-03-15T01:09:36.444Z,14.40
2023-03-15T01:12:03.659Z,14.40
2023-03-15T01:14:31.005Z,14.40
2023-03-15T01:16:57.836Z,14.30
2023-03-15T01:19:25.053Z,14.20
2023-03-15T01:21:51.937Z,14.00
2023-03-15T01:24:18.692Z,13.80
2023-03-15T01:26:45.500Z,13.50
2023-03-15T01:29:13.602Z,13.30
2023-03-15T01:31:40.490Z,13.20
2023-03-15T01:34:08.660Z,13.20
2023-03-15T01:36:35.486Z,13.10
2023-03-15T01:39:02.267Z,13.10
2023-03-15T01:41:29.013Z,13.10
2023-03-15T01:43:55.737Z,13.00
2023-03-15T01:46:23.783Z,13.00
2023-03-15T01:49:05.555Z,13.10
2023-03-15T01:51:37.393Z,13.10
2023-03-15T01:54:26.822Z,13.10
2023-03-15T01:57:10.687Z,13.00
2023-03-15T01:59:40.895Z,12.90
2023-03-15T02:02:07.789Z,12.90
2023-03-15T02:04:40.686Z,12.80
2023-03-15T02:07:07.435Z,12.90
2023-03-15T02:09:51.105Z,13.00
2023-03-15T02:12:18.312Z,13.10
2023-03-15T02:14:45.202Z,13.10
2023-03-15T02:17:11.956Z,13.10
2023-03-15T02:19:47.459Z,13.20
2023-03-15T02:22:54.829Z,13.20
2023-03-15T02:25:39.713Z,13.20
2023-03-15T02:28:07.345Z,13.20
2023-03-15T02:30:34.482Z,13.30
2023-03-15T02:33:01.602Z,13.30
2023-03-15T02:35:30.146Z,13.20
2023-03-15T02:37:57.014Z,13.00
2023-03-15T02:40:24.885Z,13.00
2023-03-15T02:42:53.969Z,12.90
2023-03-15T02:45:21.012Z,12.70
2023-03-15T02:47:47.921Z,12.60
2023-03-15T02:50:14.833Z,12.50
2023-03-15T02:52:41.576Z,12.50
2023-03-15T02:55:08.835Z,12.30
2023-03-15T02:57:36.049Z,12.30
2023-03-15T03:00:12.155Z,12.40
2023-03-15T03:02:39.186Z,12.40
2023-03-15T03:05:06.347Z,12.40
2023-03-15T03:07:33.441Z,12.50
2023-03-15T03:10:00.317Z,12.50
2023-03-15T03:12:27.150Z,12.60
2023-03-15T03:14:53.973Z,12.70
2023-03-15T03:17:20.808Z,12.80
2023-03-15T03:19:47.625Z,12.80
2023-03-15T03:22:14.338Z,12.80
2023-03-15T03:24:45.946Z,12.80
2023-03-15T03:27:15.576Z,12.50
2023-03-15T03:29:42.441Z,12.00
2023-03-15T03:32:09.501Z,11.60
2023-03-15T03:34:36.446Z,11.20
2023-03-15T03:37:03.414Z,10.90
2023-03-15T03:39:30.773Z,10.70
2023-03-15T03:41:57.593Z,10.60
2023-03-15T03:44:24.316Z,10.50
2023-03-15T03:46:51.158Z,10.50
2023-03-15T03:49:17.974Z,10.60
2023-03-15T03:51:44.734Z,10.60
2023-03-15T03:54:11.555Z,10.70
2023-03-15T03:56:39.248Z,10.80
2023-03-15T03:59:05.976Z,10.90
2023-03-15T04:01:33.785Z,10.80
2023-03-15T04:04:00.517Z,10.90
2023-03-15T04:06:27.256Z,10.90
2023-03-15T04:08:54.056Z,10.90
2023-03-15T04:11:20.827Z,10.70
2023-03-15T04:13:47.825Z,10.60
2023-03-15T04:16:14.802Z,10.50
2023-03-15T04:18:41.679Z,10.60
2023-03-15T04:21:10.910Z,10.60
2023-03-15T04:23:38.295Z,10.70
2023-03-15T04:26:08.605Z,10.80
2023-03-15T04:28:38.114Z,10.80
2023-03-15T04:31:05.154Z,10.70
2023-03-15T04:33:32.594Z,10.80
2023-03-15T04:35:59.448Z,10.80
2023-03-15T04:38:27.212Z,10.90
2023-03-15T04:40:57.411Z,11.00
2023-03-15T04:43:24.547Z,11.00
2023-03-15T04:45:51.850Z,11.10
2023-03-15T04:48:18.705Z,11.20
2023-03-15T04:50:45.616Z,11.20
2023-03-15T04:53:12.392Z,11.30
2023-03-15T04:55:39.189Z,11.30
2023-03-15T04:58:05.891Z,11.30
2023-03-15T05:00:32.743Z,11.40
2023-03-15T05:02:59.605Z,11.40
2023-03-15T05:05:26.412Z,11.30
2023-03-15T05:07:53.896Z,11.30
2023-03-15T05:10:20.846Z,11.20
2023-03-15T05:12:47.685Z,11.20
2023-03-15T05:15:14.614Z,11.10
2023-03-15T05:17:41.466Z,11.00
2023-03-15T05:20:11.745Z,11.00
2023-03-15T05:22:39.257Z,10.90
2023-03-15T05:25:06.786Z,10.90
2023-03-15T05:27:34.414Z,10.90
2023-03-15T05:30:04.408Z,10.90
2023-03-15T05:32:34.431Z,11.00
2023-03-15T05:35:01.872Z,11.00
2023-03-15T05:37:28.687Z,11.10
2023-03-15T05:39:55.602Z,11.10
2023-03-15T05:42:26.208Z,11.10
2023-03-15T05:44:53.619Z,11.00
2023-03-15T05:47:20.607Z,11.10
2023-03-15T05:49:47.512Z,11.00
2023-03-15T05:52:14.449Z,10.80
2023-03-15T05:54:41.298Z,10.70
2023-03-15T05:57:08.162Z,10.70
2023-03-15T05:59:34.991Z,10.70
2023-03-15T06:02:01.808Z,10.70
2023-03-15T06:04:28.610Z,10.70
2023-03-15T06:06:55.456Z,10.80
2023-03-15T06:09:22.368Z,10.80
2023-03-15T06:11:49.190Z,10.80
2023-03-15T06:14:15.980Z,10.90
2023-03-15T06:16:42.764Z,10.90
2023-03-15T06:19:09.561Z,10.90
2023-03-15T06:21:36.336Z,10.90
2023-03-15T06:24:03.186Z,10.90
2023-03-15T06:26:29.913Z,10.90
2023-03-15T06:28:56.708Z,11.00
2023-03-15T06:31:23.528Z,11.00
2023-03-15T06:33:50.628Z,11.10
2023-03-15T06:36:17.440Z,11.10
2023-03-15T06:38:44.571Z,11.10
2023-03-15T06:41:12.501Z,11.10
2023-03-15T06:43:39.342Z,11.10
2023-03-15T06:46:06.259Z,11.00
2023-03-15T06:48:33.153Z,11.10
2023-03-15T06:51:00.091Z,11.00
2023-03-15T06:53:26.920Z,11.10
2023-03-15T06:55:53.698Z,11.00
2023-03-15T06:58:20.641Z,11.00
2023-03-15T07:00:49.009Z,11.00
2023-03-15T07:03:15.895Z,11.00
2023-03-15T07:05:42.723Z,11.00
2023-03-15T07:08:09.478Z,11.00
2023-03-15T07:10:36.553Z,11.10
2023-03-15T07:13:04.347Z,11.10
2023-03-15T07:15:31.291Z,11.10
2023-03-15T07:17:58.045Z,11.10
2023-03-15T07:20:24.759Z,11.10
2023-03-15T07:22:51.707Z,11.10
2023-03-15T07:25:23.826Z,11.10
2023-03-15T07:27:51.122Z,11.20
2023-03-15T07:30:18.604Z,11.20
2023-03-15T07:32:45.477Z,11.20
2023-03-15T07:35:13.535Z,11.30
2023-03-15T07:37:44.302Z,11.30
2023-03-15T07:40:12.652Z,11.20
2023-03-15T07:42:42.612Z,11.10
2023-03-15T07:45:10.225Z,10.90
2023-03-15T07:47:37.007Z,10.90
2023-03-15T07:50:05.127Z,11.00
2023-03-15T07:52:31.972Z,10.90
2023-03-15T07:54:59.176Z,11.00
2023-03-15T07:57:28.723Z,10.90
2023-03-15T07:59:56.178Z,10.90
2023-03-15T08:02:23.176Z,10.80
2023-03-15T08:04:51.434Z,10.90
2023-03-15T08:07:18.256Z,11.20
2023-03-15T08:09:45.116Z,11.30
2023-03-15T08:12:12.238Z,11.40
2023-03-15T08:14:39.045Z,11.60
2023-03-15T08:17:05.972Z,11.80
2023-03-15T08:19:32.912Z,12.00
2023-03-15T08:21:59.722Z,12.00
2023-03-15T08:24:27.232Z,12.20
2023-03-15T08:26:53.987Z,12.30
2023-03-15T08:29:20.758Z,12.40
2023-03-15T08:31:47.562Z,12.50
2023-03-15T08:34:16.108Z,12.30
2023-03-15T08:36:42.983Z,12.00
2023-03-15T08:39:09.867Z,11.90
2023-03-15T08:41:36.644Z,12.10
2023-03-15T08:44:03.546Z,12.30
2023-03-15T08:46:30.443Z,12.60
2023-03-15T08:48:57.347Z,12.80
2023-03-15T08:51:25.563Z,13.00
2023-03-15T08:53:53.142Z,13.20
2023-03-15T08:56:19.915Z,13.40
2023-03-15T08:58:46.823Z,13.60
2023-03-15T09:01:15.269Z,13.80
2023-03-15T09:03:42.627Z,14.10
2023-03-15T09:06:09.724Z,14.30
2023-03-15T09:08:36.570Z,14.60
2023-03-15T09:11:03.902Z,15.00
2023-03-15T09:13:30.780Z,15.20
2023-03-15T09:15:57.758Z,15.60
2023-03-15T09:18:24.689Z,16.00
2023-03-15T09:20:51.729Z,16.40
2023-03-15T09:23:18.608Z,16.70
2023-03-15T09:25:45.468Z,17.40
2023-03-15T09:28:12.300Z,18.20
2023-03-15T09:30:39.534Z,18.90
2023-03-15T09:33:07.637Z,19.30
2023-03-15T09:35:34.694Z,19.80
2023-03-15T09:38:01.791Z,19.90
2023-03-15T09:40:30.725Z,19.70
2023-03-15T09:43:14.066Z,19.50
2023-03-15T09:45:48.677Z,19.10
2023-03-15T09:48:16.940Z,18.40
2023-03-15T09:50:57.378Z,17.70
2023-03-15T09:53:27.501Z,17.20
2023-03-15T09:55:55.022Z,16.90
2023-03-15T09:58:32.666Z,16.80
2023-03-15T10:01:06.790Z,16.80
2023-03-15T10:03:52.698Z,16.60
2023-03-15T10:06:22.850Z,16.50
2023-03-15T10:08:50.622Z,16.30
2023-03-15T10:11:39.984Z,16.10
2023-03-15T10:14:12.579Z,15.70
2023-03-15T10:16:50.110Z,15.40
2023-03-15T10:19:45.837Z,15.20
2023-03-15T10:22:37.700Z,15.20
2023-03-15T10:25:16.845Z,15.20
2023-03-15T10:27:50.890Z,15.40
2023-03-15T10:30:24.102Z,15.40
2023-03-15T10:32:56.844Z,15.40
2023-03-15T10:35:23.724Z,15.30
2023-03-15T10:37:50.600Z,15.20
2023-03-15T10:40:37.556Z,15.10
2023-03-15T10:43:13.386Z,15.00
2023-03-15T10:45:40.252Z,14.90
2023-03-15T10:48:08.288Z,14.80
2023-03-15T10:50:37.606Z,14.60
2023-03-15T10:53:10.494Z,14.60
2023-03-15T10:55:42.870Z,14.50
2023-03-15T10:58:43.270Z,14.40
2023-03-15T11:01:42.393Z,14.30
2023-03-15T11:04:27.383Z,14.30
2023-03-15T11:06:57.275Z,14.20
2023-03-15T11:09:26.198Z,14.20
2023-03-15T11:12:03.168Z,14.30
2023-03-15T11:14:38.861Z,14.40
2023-03-15T11:17:06.672Z,14.40
2023-03-15T11:19:36.726Z,14.30
2023-03-15T11:22:03.660Z,14.20
2023-03-15T11:24:32.090Z,14.10
2023-03-15T11:27:03.098Z,14.10
2023-03-15T11:29:33.807Z,14.10
2023-03-15T11:32:02.355Z,14.20
2023-03-15T11:34:56.155Z,14.30
2023-03-15T11:37:28.463Z,14.30
2023-03-15T11:40:11.352Z,14.20
2023-03-15T11:42:51.478Z,14.20
2023-03-15T11:45:33.782Z,14.30
2023-03-15T11:48:04.338Z,14.30
2023-03-15T11:50:31.260Z,14.30
2023-03-15T11:53:03.006Z,14.40
2023-03-15T11:55:30.143Z,14.50
2023-03-15T11:57:58.472Z,14.50
2023-03-15T12:00:36.443Z,14.50
2023-03-15T12:03:34.409Z,14.40
2023-03-15T12:06:10.481Z,14.40
2023-03-15T12:08:41.514Z,14.50
2023-03-15T12:11:32.477Z,14.50
2023-03-15T12:13:59.305Z,14.40
2023-03-15T12:16:27.604Z,14.30
2023-03-15T12:18:57.616Z,14.30
2023-03-15T12:21:45.848Z,14.30
2023-03-15T12:24:31.025Z,14.20
2023-03-15T12:27:01.498Z,14.20
2023-03-15T12:29:28.735Z,14.20
2023-03-15T12:32:01.699Z,14.10
2023-03-15T12:34:31.788Z,14.10
2023-03-15T12:37:01.512Z,14.20
2023-03-15T12:39:38.897Z,14.20
2023-03-15T12:42:05.723Z,14.20
2023-03-15T12:44:32.522Z,14.10
2023-03-15T12:47:00.765Z,14.10
2023-03-15T12:49:27.566Z,14.00
2023-03-15T12:51:56.884Z,13.90
2023-03-15T12:54:26.182Z,13.80
2023-03-15T12:57:00.320Z,13.80
2023-03-15T13:00:18.673Z,13.70
2023-03-15T13:02:49.806Z,13.70
2023-03-15T13:05:25.074Z,13.70
2023-03-15T13:07:56.491Z,13.60
2023-03-15T13:10:41.471Z,13.70
2023-03-15T13:13:28.496Z,13.70
2023-03-15T13:16:26.067Z,13.70
2023-03-15T13:18:55.517Z,13.80
2023-03-15T13:21:36.023Z,13.80
2023-03-15T13:24:03.447Z,13.90
2023-03-15T13:26:36.530Z,14.00
2023-03-15T13:29:12.685Z,14.10
2023-03-15T13:31:39.626Z,14.20
2023-03-15T13:34:24.086Z,14.10
2023-03-15T13:36:55.075Z,13.90
2023-03-15T13:39:24.044Z,13.80
2023-03-15T13:42:00.300Z,13.70
2023-03-15T13:44:27.994Z,13.80
2023-03-15T13:46:54.854Z,13.80
2023-03-15T13:49:21.935Z,13.70
2023-03-15T13:51:49.352Z,13.60
2023-03-15T13:54:18.712Z,13.40
2023-03-15T13:57:12.930Z,13.30
2023-03-15T13:59:47.561Z,13.30
2023-03-15T14:02:35.590Z,13.20
2023-03-15T14:05:09.402Z,13.30
2023-03-15T14:07:40.658Z,13.30
2023-03-15T14:10:10.351Z,13.40
2023-03-15T14:12:37.234Z,13.40
2023-03-15T14:15:04.117Z,13.30
2023-03-15T14:17:31.207Z,13.30
2023-03-15T14:20:09.249Z,13.20
2023-03-15T14:22:36.397Z,13.10
2023-03-15T14:25:04.191Z,13.10
2023-03-15T14:27:31.140Z,13.00
2023-03-15T14:30:01.933Z,13.00
2023-03-15T14:32:32.351Z,13.00
2023-03-15T14:35:26.244Z,13.00
2023-03-15T14:38:16.407Z,13.00
2023-03-15T14:40:43.323Z,13.00
2023-03-15T14:43:10.315Z,13.10
2023-03-15T14:45:38.600Z,13.20
2023-03-15T14:48:27.212Z,13.30
2023-03-15T14:50:54.721Z,13.20
2023-03-15T14:53:22.992Z,13.20
2023-03-15T14:55:49.820Z,13.30
2023-03-15T14:58:21.006Z,13.20
2023-03-15T15:00:49.657Z,13.20
2023-03-15T15:03:38.604Z,13.00
2023-03-15T15:06:06.890Z,13.00
2023-03-15T15:08:33.782Z,13.00
2023-03-15T15:11:01.076Z,12.90
2023-03-15T15:13:29.135Z,12.80
2023-03-15T15:15:57.002Z,12.70
2023-03-15T15:18:31.646Z,12.60
2023-03-15T15:21:03.123Z,12.40
2023-03-15T15:23:31.600Z,12.30
2023-03-15T15:26:00.113Z,12.20
2023-03-15T15:28:35.314Z,12.10
2023-03-15T15:31:07.262Z,12.00
2023-03-15T15:33:34.353Z,12.00
2023-03-15T15:36:01.244Z,11.90
2023-03-15T15:38:33.292Z,11.80
2023-03-15T15:41:00.166Z,11.80
2023-03-15T15:43:27.030Z,11.80
2023-03-15T15:45:53.968Z,11.80
2023-03-15T15:48:20.844Z,11.70
2023-03-15T15:50:47.661Z,11.60
2023-03-15T15:53:17.026Z,11.60
2023-03-15T15:55:44.281Z,11.60
2023-03-15T15:58:12.053Z,11.50
2023-03-15T16:00:38.853Z,11.50
2023-03-15T16:03:16.615Z,11.40
2023-03-15T16:05:43.556Z,11.20
2023-03-15T16:08:21.137Z,11.10
2023-03-15T16:10:47.980Z,11.10
2023-03-15T16:13:14.934Z,11.10
2023-03-15T16:15:41.770Z,11.00
2023-03-15T16:18:12.410Z,10.90
2023-03-15T16:20:39.820Z,10.90
2023-03-15T16:23:06.717Z,10.80
2023-03-15T16:25:35.155Z,10.80
2023-03-15T16:28:02.365Z,10.80
2023-03-15T16:30:34.562Z,10.80
2023-03-15T16:33:01.583Z,10.60
2023-03-15T16:35:33.898Z,10.30
2023-03-15T16:38:01.408Z,9.90
2023-03-15T16:40:34.516Z,9.70
2023-03-15T16:43:01.410Z,9.50
2023-03-15T16:45:28.554Z,9.20
2023-03-15T16:47:56.385Z,9.10
2023-03-15T16:50:23.200Z,9.00
2023-03-15T16:52:52.215Z,8.90
2023-03-15T16:55:24.488Z,8.80
2023-03-15T16:57:51.339Z,8.70
2023-03-15T17:00:18.478Z,8.70
2023-03-15T17:02:46.464Z,8.60
2023-03-15T17:05:17.620Z,8.60
2023-03-15T17:07:44.736Z,8.60
2023-03-15T17:10:31.124Z,8.60
2023-03-15T17:13:00.175Z,8.50
2023-03-15T17:15:27.671Z,8.50
2023-03-15T17:17:57.232Z,8.50
2023-03-15T17:20:27.085Z,8.50
2023-03-15T17:22:55.619Z,8.60
2023-03-15T17:25:22.441Z,8.70
2023-03-15T17:27:49.564Z,8.70
2023-03-15T17:30:16.729Z,8.60
2023-03-15T17:32:43.626Z,8.60
2023-03-15T17:35:10.545Z,8.70
2023-03-15T17:37:37.359Z,8.60
2023-03-15T17:40:12.402Z,8.70
2023-03-15T17:42:39.300Z,8.70
2023-03-15T17:45:16.758Z,8.70
2023-03-15T17:47:43.694Z,8.70
2023-03-15T17:50:11.353Z,8.70
2023-03-15T17:52:39.303Z,8.80
2023-03-15T17:55:06.471Z,8.80
2023-03-15T17:57:33.876Z,8.80
2023-03-15T18:00:01.987Z,8.90
2023-03-15T18:02:29.463Z,9.00
2023-03-15T18:04:57.346Z,9.10
2023-03-15T18:07:26.235Z,9.20
2023-03-15T18:09:53.112Z,9.40
2023-03-15T18:12:19.884Z,9.50
2023-03-15T18:14:46.651Z,9.50
2023-03-15T18:17:13.504Z,9.60
2023-03-15T18:19:40.329Z,9.70
2023-03-15T18:22:07.186Z,9.70
2023-03-15T18:24:34.484Z,9.60
2023-03-15T18:27:01.810Z,9.60
2023-03-15T18:29:28.657Z,9.50
2023-03-15T18:31:55.431Z,9.50
2023-03-15T18:34:23.156Z,9.60
2023-03-15T18:36:50.058Z,9.60
2023-03-15T18:39:16.902Z,9.70
2023-03-15T18:41:43.655Z,9.70
2023-03-15T18:44:10.766Z,9.80
2023-03-15T18:46:37.514Z,9.90
2023-03-15T18:49:04.957Z,9.90
2023-03-15T18:51:31.846Z,9.90
2023-03-15T18:53:58.685Z,9.90
2023-03-15T18:56:27.142Z,9.80
2023-03-15T18:58:54.731Z,9.70
2023-03-15T19:01:24.990Z,9.70
2023-03-15T19:03:52.236Z,9.60
2023-03-15T19:06:19.059Z,9.50
2023-03-15T19:08:46.038Z,9.40
2023-03-15T19:11:12.987Z,9.40
2023-03-15T19:13:39.866Z,9.30
2023-03-15T19:16:07.133Z,9.30
2023-03-15T19:18:34.897Z,9.20
2023-03-15T19:21:02.611Z,9.20
2023-03-15T19:23:29.483Z,9.10
2023-03-15T19:25:56.294Z,9.10
2023-03-15T19:28:23.186Z,9.10
2023-03-15T19:30:50.072Z,9.10
2023-03-15T19:33:16.893Z,9.20
2023-03-15T19:35:43.813Z,9.20
2023-03-15T19:38:11.093Z,9.30
2023-03-15T19:40:37.963Z,9.30
2023-03-15T19:43:04.734Z,9.30
2023-03-15T19:45:32.777Z,9.20
2023-03-15T19:47:59.539Z,9.10
2023-03-15T19:50:30.942Z,8.90
2023-03-15T19:52:58.187Z,8.80
2023-03-15T19:55:27.965Z,8.70
2023-03-15T19:57:56.405Z,8.70
2023-03-15T20:00:25.236Z,8.70
2023-03-15T20:02:52.090Z,8.70
2023-03-15T20:05:20.566Z,8.70
2023-03-15T20:07:50.619Z,8.70
2023-03-15T20:10:17.597Z,8.80
2023-03-15T20:12:45.356Z,8.80
2023-03-15T20:15:13.556Z,8.80
2023-03-15T20:17:40.849Z,8.80
2023-03-15T20:20:11.375Z,8.80
2023-03-15T20:22:41.115Z,8.80
2023-03-15T20:25:09.035Z,8.70
2023-03-15T20:27:35.871Z,8.70
2023-03-15T20:30:03.563Z,8.70
2023-03-15T20:32:30.620Z,8.70
2023-03-15T20:34:57.578Z,8.70
2023-03-15T20:37:25.342Z,8.70
2023-03-15T20:39:52.139Z,8.70
2023-03-15T20:42:20.890Z,8.70
2023-03-15T20:44:47.683Z,8.60
2023-03-15T20:47:14.675Z,8.70
2023-03-15T20:49:41.579Z,8.60
2023-03-15T20:52:09.018Z,8.60
2023-03-15T20:54:36.697Z,8.60
2023-03-15T20:57:04.177Z,8.60
2023-03-15T20:59:32.073Z,8.50
2023-03-15T21:01:58.923Z,8.50
2023-03-15T21:04:26.290Z,8.50
2023-03-15T21:06:53.172Z,8.50
2023-03-15T21:09:19.932Z,8.40
2023-03-15T21:11:46.810Z,8.40
2023-03-15T21:14:13.768Z,8.50
2023-03-15T21:16:41.070Z,8.50
2023-03-15T21:19:07.904Z,8.50
2023-03-15T21:21:34.828Z,8.50
2023-03-15T21:24:02.222Z,8.60
2023-03-15T21:26:29.014Z,8.60
2023-03-15T21:28:55.777Z,8.80
2023-03-15T21:31:22.644Z,8.80
2023-03-15T21:33:50.904Z,8.80
2023-03-15T21:36:17.952Z,8.90
2023-03-15T21:38:44.817Z,8.90
2023-03-15T21:41:11.666Z,8.90
2023-03-15T21:43:38.491Z,8.90
2023-03-15T21:46:10.159Z,8.90
2023-03-15T21:48:37.232Z,8.90
2023-03-15T21:51:04.593Z,8.90
2023-03-15T21:53:31.920Z,8.80
2023-03-15T21:55:58.979Z,8.80
2023-03-15T21:58:26.290Z,8.80
2023-03-15T22:01:00.025Z,8.80
2023-03-15T22:03:27.573Z,8.70
2023-03-15T22:05:54.731Z,8.60
2023-03-15T22:08:21.604Z,8.60
2023-03-15T22:10:52.536Z,8.60
2023-03-15T22:13:19.266Z,8.60
2023-03-15T22:15:46.056Z,8.60
2023-03-15T22:18:12.856Z,8.60
2023-03-15T22:20:39.638Z,8.60
2023-03-15T22:23:06.551Z,8.60
2023-03-15T22:25:33.494Z,8.70
2023-03-15T22:28:01.801Z,8.70
2023-03-15T22:30:28.776Z,8.60
2023-03-15T22:32:55.678Z,8.60
2023-03-15T22:35:22.782Z,8.60
2023-03-15T22:37:49.754Z,8.50
2023-03-15T22:40:16.663Z,8.50
2023-03-15T22:42:44.106Z,8.50
2023-03-15T22:45:11.114Z,8.50
2023-03-15T22:47:37.913Z,8.50
2023-03-15T22:50:05.013Z,8.50
2023-03-15T22:52:31.887Z,8.50
2023-03-15T22:54:58.713Z,8.50
2023-03-15T22:57:25.583Z,8.40
2023-03-15T22:59:52.392Z,8.40
2023-03-15T23:02:19.257Z,8.30
2023-03-15T23:04:46.440Z,8.30
2023-03-15T23:07:13.349Z,8.20
2023-03-15T23:09:40.308Z,8.20
2023-03-15T23:12:07.456Z,8.20
2023-03-15T23:14:34.525Z,8.10
2023-03-15T23:17:03.340Z,8.10
2023-03-15T23:19:36.017Z,8.00
2023-03-15T23:22:04.534Z,8.00
2023-03-15T23:24:33.975Z,8.00
2023-03-15T23:27:03.409Z,8.00
2023-03-15T23:29:32.571Z,7.90
2023-03-15T23:32:01.262Z,7.90
2023-03-15T23:34:28.367Z,7.90
2023-03-15T23:36:55.123Z,7.80
2023-03-15T23:39:22.119Z,7.80
2023-03-15T23:41:49.061Z,7.80
2023-03-15T23:44:16.177Z,7.80
2023-03-15T23:46:43.084Z,7.80
2023-03-15T23:49:10.496Z,7.70
2023-03-15T23:51:37.328Z,7.70
2023-03-15T23:54:04.182Z,7.70
2023-03-15T23:56:31.131Z,7.60
2023-03-15T23:58:58.726Z,7.60
